Time;durP1;ratioP1;P1;durP2;ratioP2;P2;SDS_P1;SDS_P2;PMS_P1;PMS_P2;Temp;Humidity;BMP_temperature;BMP_pressure;BME280_temperature;BME280_humidity;BME280_pressure;Samples;Min_cycle;Max_cycle;Signal;HPM_P1;HPM_P2
2022/12/09 00:00:12;;;;;;;;;;;;;;;;;;1049625;28;2466;-60
2022/12/09 00:01:21;;;;;;;;;;;;;;;;;;1046282;28;1998;-58
2022/12/09 00:01:51;;;;;;;;;;;;;;;;;;1044341;28;2690;-60
2022/12/09 00:02:22;;;;;;;;;;;;;;;;;;1048059;28;2259;-59
2022/12/09 00:02:52;;;;;;;;;;;;;;;;;;1051934;28;2949;-57
2022/12/09 00:03:22;;;;;;;;;;;;;;;;;;1051725;28;2080;-59
2022/12/09 00:03:53;;;;;;;;;;;;;;;;;;1049498;28;2404;-59
2022/12/09 00:04:24;;;;;;;;;;;;;;;;;;1051067;28;2371;-59
2022/12/09 00:04:54;;;;;;;;;;;;;;;;;;1048200;28;2375;-60
2022/12/09 00:05:24;;;;;;;;;;;;;;;;;;1053219;28;2737;-59
2022/12/09 00:05:55;;;;;;;;;;;;;;;;;;1051071;28;1914;-58
2022/12/09 00:06:26;;;;;;;;;;;;;;;;;;1049209;28;2586;-59
2022/12/09 00:06:56;;;;;;;;;;;;;;;;;;1048137;28;2436;-58
2022/12/09 00:07:27;;;;;;;;;;;;;;;;;;1050034;28;2347;-58
2022/12/09 00:07:57;;;;;;;;;;;;;;;;;;1049910;28;2558;-58
2022/12/09 00:08:27;;;;;;;;;;;;;;;;;;1050611;28;2085;-59
2022/12/09 00:08:57;;;;;;;;;;;;;;;;;;1055017;28;1698;-59
2022/12/09 00:09:28;;;;;;;;;;;;;;;;;;1047737;28;2351;-59
2022/12/09 00:09:58;;;;;;;;;;;;;;;;;;1044943;28;2464;-59
2022/12/09 00:10:28;;;;;;;;;;;;;;;;;;1044804;28;2326;-59
2022/12/09 00:10:59;;;;;;;;;;;;;;;;;;1045829;28;2365;-59
2022/12/09 00:11:29;;;;;;;;;;;;;;;;;;1046296;28;1996;-58
2022/12/09 00:11:59;;;;;;;;;;;;;;;;;;1051174;28;2124;-59
2022/12/09 00:12:29;;;;;;;;;;;;;;;;;;1048981;28;2350;-60
2022/12/09 00:13:00;;;;;;;;;;;;;;;;;;1049805;28;2433;-58
2022/12/09 00:13:30;;;;;;;;;;;;;;;;;;1050048;28;1858;-56
2022/12/09 00:14:00;;;;;;;;;;;;;;;;;;1052313;28;1948;-60
2022/12/09 00:14:30;;;;;;;;;;;;;;;;;;1050491;28;2298;-59
2022/12/09 00:15:01;;;;;;;;;;;;;;;;;;1045512;28;2439;-60
2022/12/09 00:15:31;;;;;;;;;;;;;;;;;;1043088;28;2548;-60
2022/12/09 00:16:11;;;;;;;;;;;;;;;;;;1043466;28;1746;-59
2022/12/09 00:16:41;;;;;;;;;;;;;;;;;;1042659;28;2514;-59
2022/12/09 00:17:11;;;;;;;;;;;;;;;;;;1047393;28;1382;-59
2022/12/09 00:17:41;;;;;;;;;;;;;;;;;;1045989;28;2515;-59
2022/12/09 00:18:12;;;;;;;;;;;;;;;;;;1050439;28;2104;-60
2022/12/09 00:18:42;;;;;;;;;;;;;;;;;;1050738;28;2231;-58
2022/12/09 00:19:12;;;;;;;;;;;;;;;;;;1051273;28;2242;-58
2022/12/09 00:19:43;;;;;;;;;;;;;;;;;;1048995;28;2831;-58
2022/12/09 00:20:13;;;;;;;;;;;;;;;;;;1045066;28;2357;-58
2022/12/09 00:20:43;;;;;;;;;;;;;;;;;;1045702;28;2349;-58
2022/12/09 00:21:17;;;;;;;;;;;;;;;;;;1045604;28;2521;-59
2022/12/09 00:21:47;;;;;;;;;;;;;;;;;;1048797;28;2254;-58
2022/12/09 00:22:17;;;;;;;;;;;;;;;;;;1051793;28;2090;-58
2022/12/09 00:22:47;;;;;;;;;;;;;;;;;;1050752;28;2445;-58
2022/12/09 00:23:18;;;;;;;;;;;;;;;;;;1050734;28;2100;-60
2022/12/09 00:23:49;;;;;;;;;;;;;;;;;;1047531;28;1693;-59
2022/12/09 00:24:19;;;;;;;;;;;;;;;;;;1040758;28;2435;-58
2022/12/09 00:24:49;;;;;;;;;;;;;;;;;;1042598;28;1666;-59
2022/12/09 00:25:19;;;;;;;;;;;;;;;;;;1041697;28;2332;-60
2022/12/09 00:25:49;;;;;;;;;;;;;;;;;;1045163;28;2315;-58
2022/12/09 00:26:20;;;;;;;;;;;;;;;;;;1051378;28;2376;-59
2022/12/09 00:26:50;;;;;;;;;;;;;;;;;;1052049;28;1722;-58
2022/12/09 00:27:21;;;;;;;;;;;;;;;;;;1051344;28;2008;-59
2022/12/09 00:27:51;;;;;;;;;;;;;;;;;;1047630;28;2311;-59
2022/12/09 00:28:21;;;;;;;;;;;;;;;;;;1050142;28;2419;-59
2022/12/09 00:28:52;;;;;;;;;;;;;;;;;;1051809;28;2191;-60
2022/12/09 00:29:22;;;;;;;;;;;;;;;;;;1049515;28;2124;-59
2022/12/09 00:29:52;;;;;;;;;;;;;;;;;;1051112;28;2276;-61
2022/12/09 00:30:23;;;;;;;;;;;;;;;;;;1049900;28;1938;-58
2022/12/09 00:30:53;;;;;;;;;;;;;;;;;;1048897;28;2380;-59
2022/12/09 00:31:25;;;;;;;;;;;;;;;;;;1050573;28;2459;-60
2022/12/09 00:31:55;;;;;;;;;;;;;;;;;;1050778;28;2143;-59
2022/12/09 00:32:25;;;;;;;;;;;;;;;;;;1049703;28;2951;-58
2022/12/09 00:32:55;;;;;;;;;;;;;;;;;;1050685;28;2063;-60
2022/12/09 00:33:26;;;;;;;;;;;;;;;;;;1050183;28;2384;-61
2022/12/09 00:33:57;;;;;;;;;;;;;;;;;;1050426;28;2072;-59
2022/12/09 00:34:28;;;;;;;;;;;;;;;;;;1051189;28;1735;-60
2022/12/09 00:34:58;;;;;;;;;;;;;;;;;;1050340;28;2387;-57
2022/12/09 00:35:28;;;;;;;;;;;;;;;;;;1050995;28;2950;-59
2022/12/09 00:36:03;;;;;;;;;;;;;;;;;;1049855;28;2458;-59
2022/12/09 00:36:33;;;;;;;;;;;;;;;;;;1050969;28;2548;-59
2022/12/09 00:37:03;;;;;;;;;;;;;;;;;;1048504;28;2938;-60
2022/12/09 00:37:34;;;;;;;;;;;;;;;;;;1052581;28;2485;-60
2022/12/09 00:38:04;;;;;;;;;;;;;;;;;;1045169;28;2404;-59
2022/12/09 00:38:34;;;;;;;;;;;;;;;;;;1048969;28;2459;-60
2022/12/09 00:39:04;;;;;;;;;;;;;;;;;;1046331;28;2963;-58
2022/12/09 00:39:35;;;;;;;;;;;;;;;;;;1046403;28;2171;-57
2022/12/09 00:40:05;;;;;;;;;;;;;;;;;;1050614;28;2566;-60
2022/12/09 00:40:35;;;;;;;;;;;;;;;;;;1052436;28;2305;-59
2022/12/09 00:41:06;;;;;;;;;;;;;;;;;;1049212;28;3498;-60
2022/12/09 00:41:36;;;;;;;;;;;;;;;;;;1051523;28;2413;-59
2022/12/09 00:42:07;;;;;;;;;;;;;;;;;;1051483;28;1653;-58
2022/12/09 00:42:37;;;;;;;;;;;;;;;;;;1051539;28;2118;-56
2022/12/09 00:43:07;;;;;;;;;;;;;;;;;;1051104;28;2541;-59
2022/12/09 00:43:38;;;;;;;;;;;;;;;;;;1050440;28;2395;-58
2022/12/09 00:44:08;;;;;;;;;;;;;;;;;;1050526;28;2220;-60
2022/12/09 00:44:38;;;;;;;;;;;;;;;;;;1049034;28;2931;-58
2022/12/09 00:45:09;;;;;;;;;;;;;;;;;;1050018;28;2642;-59
2022/12/09 00:45:39;;;;;;;;;;;;;;;;;;1050412;28;2504;-58
2022/12/09 00:46:10;;;;;;;;;;;;;;;;;;1051091;28;2390;-61
2022/12/09 00:46:40;;;;;;;;;;;;;;;;;;1049416;28;3004;-58
2022/12/09 00:47:11;;;;;;;;;;;;;;;;;;1049773;28;2559;-59
2022/12/09 00:47:47;;;;;;;;;;;;;;;;;;1049896;28;2485;-60
2022/12/09 00:48:17;;;;;;;;;;;;;;;;;;1051127;28;2501;-60
2022/12/09 00:48:48;;;;;;;;;;;;;;;;;;1051854;28;2453;-59
2022/12/09 00:49:18;;;;;;;;;;;;;;;;;;1050747;28;2494;-60
2022/12/09 00:49:48;;;;;;;;;;;;;;;;;;1051131;28;2041;-59
2022/12/09 00:50:18;;;;;;;;;;;;;;;;;;1051055;28;2112;-60
2022/12/09 00:50:48;;;;;;;;;;;;;;;;;;1048348;28;2128;-60
2022/12/09 00:51:20;;;;;;;;;;;;;;;;;;1049332;28;2439;-59
2022/12/09 00:51:52;;;;;;;;;;;;;;;;;;1051173;28;1960;-59
2022/12/09 00:52:23;;;;;;;;;;;;;;;;;;1050285;28;2508;-59
2022/12/09 00:52:53;;;;;;;;;;;;;;;;;;1045270;28;2681;-59
2022/12/09 00:53:23;;;;;;;;;;;;;;;;;;1047464;28;1676;-58
2022/12/09 00:53:54;;;;;;;;;;;;;;;;;;1045797;28;1938;-60
2022/12/09 00:54:24;;;;;;;;;;;;;;;;;;1041867;28;3194;-58
2022/12/09 00:54:54;;;;;;;;;;;;;;;;;;1045547;28;3008;-58
2022/12/09 00:55:25;;;;;;;;;;;;;;;;;;1051635;28;1718;-59
2022/12/09 00:55:55;;;;;;;;;;;;;;;;;;1053667;28;1949;-59
2022/12/09 00:56:27;;;;;;;;;;;;;;;;;;1049857;28;2329;-60
2022/12/09 00:56:57;;;;;;;;;;;;;;;;;;1045595;28;2702;-60
2022/12/09 00:57:27;;;;;;;;;;;;;;;;;;1045517;28;2931;-60
2022/12/09 00:57:57;;;;;;;;;;;;;;;;;;1046269;28;2112;-60
2022/12/09 00:58:28;;;;;;;;;;;;;;;;;;1044072;28;1678;-59
2022/12/09 00:58:58;;;;;;;;;;;;;;;;;;1045755;28;2468;-61
2022/12/09 00:59:42;;;;;;;;;;;;;;;;;;1044641;28;2393;-60
2022/12/09 01:00:12;;;;;;;;;;;;;;;;;;1043839;28;2354;-60
2022/12/09 01:00:42;;;;;;;;;;;;;;;;;;1046511;28;2575;-59
2022/12/09 01:01:13;;;;;;;;;;;;;;;;;;1044974;28;2297;-59
2022/12/09 01:01:43;;;;;;;;;;;;;;;;;;1048488;28;1946;-60
2022/12/09 01:02:13;;;;;;;;;;;;;;;;;;1046721;28;2948;-58
2022/12/09 01:02:43;;;;;;;;;;;;;;;;;;1047454;28;1657;-58
2022/12/09 01:03:14;;;;;;;;;;;;;;;;;;1046004;28;2215;-59
2022/12/09 01:03:44;;;;;;;;;;;;;;;;;;1046776;28;2030;-59
2022/12/09 01:04:16;;;;;;;;;;;;;;;;;;1047601;28;1425;-59
2022/12/09 01:04:48;;;;;;;;;;;;;;;;;;1047478;28;1591;-59
2022/12/09 01:05:18;;;;;;;;;;;;;;;;;;1045974;28;2292;-59
2022/12/09 01:05:49;;;;;;;;;;;;;;;;;;1044788;28;2757;-60
2022/12/09 01:06:20;;;;;;;;;;;;;;;;;;1047892;28;1656;-60
2022/12/09 01:06:50;;;;;;;;;;;;;;;;;;1045082;28;2495;-60
2022/12/09 01:07:21;;;;;;;;;;;;;;;;;;1045899;28;2887;-58
2022/12/09 01:07:51;;;;;;;;;;;;;;;;;;1045077;28;2575;-59
2022/12/09 01:08:21;;;;;;;;;;;;;;;;;;1047074;28;2783;-59
2022/12/09 01:08:51;;;;;;;;;;;;;;;;;;1045024;28;2636;-60
2022/12/09 01:09:22;;;;;;;;;;;;;;;;;;1046601;28;2044;-59
2022/12/09 01:09:52;;;;;;;;;;;;;;;;;;1046074;28;1730;-58
2022/12/09 01:10:22;;;;;;;;;;;;;;;;;;1045962;28;2347;-60
2022/12/09 01:10:52;;;;;;;;;;;;;;;;;;1047069;28;2340;-58
2022/12/09 01:11:25;;;;;;;;;;;;;;;;;;1045467;28;2034;-60
2022/12/09 01:11:55;;;;;;;;;;;;;;;;;;1044179;28;2354;-59
2022/12/09 01:12:32;;;;;;;;;;;;;;;;;;1045828;28;2371;-60
2022/12/09 01:13:03;;;;;;;;;;;;;;;;;;1046799;28;2100;-60
2022/12/09 01:13:33;;;;;;;;;;;;;;;;;;1046560;28;2123;-59
2022/12/09 01:14:03;;;;;;;;;;;;;;;;;;1046849;28;2320;-60
2022/12/09 01:14:33;;;;;;;;;;;;;;;;;;1044251;28;2434;-59
2022/12/09 01:15:07;;;;;;;;;;;;;;;;;;1043869;28;2367;-61
2022/12/09 01:15:37;;;;;;;;;;;;;;;;;;1045512;28;2706;-59
2022/12/09 01:16:18;;;;;;;;;;;;;;;;;;1046549;28;2120;-59
2022/12/09 01:16:48;;;;;;;;;;;;;;;;;;1044451;28;2287;-59
2022/12/09 01:17:19;;;;;;;;;;;;;;;;;;1047509;28;1730;-59
2022/12/09 01:17:49;;;;;;;;;;;;;;;;;;1045998;28;2403;-60
2022/12/09 01:18:19;;;;;;;;;;;;;;;;;;1044783;28;2459;-60
2022/12/09 01:18:50;;;;;;;;;;;;;;;;;;1046793;28;2134;-60
2022/12/09 01:19:20;;;;;;;;;;;;;;;;;;1045410;28;2213;-60
2022/12/09 01:19:51;;;;;;;;;;;;;;;;;;1044307;28;2579;-60
2022/12/09 01:20:21;;;;;;;;;;;;;;;;;;1046185;28;2437;-60
2022/12/09 01:20:55;;;;;;;;;;;;;;;;;;1046071;28;2293;-60
2022/12/09 01:21:28;;;;;;;;;;;;;;;;;;1047776;28;1652;-60
2022/12/09 01:21:59;;;;;;;;;;;;;;;;;;1045113;28;2440;-58
2022/12/09 01:22:29;;;;;;;;;;;;;;;;;;1045693;28;2253;-58
2022/12/09 01:22:59;;;;;;;;;;;;;;;;;;1047090;28;2700;-59
2022/12/09 01:23:30;;;;;;;;;;;;;;;;;;1046966;28;2331;-59
2022/12/09 01:24:00;;;;;;;;;;;;;;;;;;1047250;28;1699;-60
2022/12/09 01:24:31;;;;;;;;;;;;;;;;;;1047350;28;1676;-59
2022/12/09 01:25:01;;;;;;;;;;;;;;;;;;1047066;28;1669;-59
2022/12/09 01:25:31;;;;;;;;;;;;;;;;;;1047022;28;2047;-60
2022/12/09 01:26:03;;;;;;;;;;;;;;;;;;1046513;28;2172;-59
2022/12/09 01:26:33;;;;;;;;;;;;;;;;;;1048268;28;1984;-60
2022/12/09 01:27:03;;;;;;;;;;;;;;;;;;1045905;28;2332;-58
2022/12/09 01:27:40;;;;;;;;;;;;;;;;;;1046417;28;2599;-59
2022/12/09 01:28:10;;;;;;;;;;;;;;;;;;1048392;28;1979;-59
2022/12/09 01:28:40;;;;;;;;;;;;;;;;;;1051731;28;1738;-59
2022/12/09 01:29:11;;;;;;;;;;;;;;;;;;1051637;28;1746;-60
2022/12/09 01:29:41;;;;;;;;;;;;;;;;;;1051956;28;1915;-59
2022/12/09 01:30:12;;;;;;;;;;;;;;;;;;1045574;28;2422;-59
2022/12/09 01:30:42;;;;;;;;;;;;;;;;;;1049055;28;2155;-60
2022/12/09 01:31:14;;;;;;;;;;;;;;;;;;1046663;28;2073;-57
2022/12/09 01:31:44;;;;;;;;;;;;;;;;;;1046071;28;2454;-59
2022/12/09 01:32:15;;;;;;;;;;;;;;;;;;1044757;28;1931;-60
2022/12/09 01:32:45;;;;;;;;;;;;;;;;;;1047861;28;2616;-59
2022/12/09 01:33:15;;;;;;;;;;;;;;;;;;1048632;28;1747;-58
2022/12/09 01:33:46;;;;;;;;;;;;;;;;;;1048013;28;1927;-59
2022/12/09 01:34:16;;;;;;;;;;;;;;;;;;1050404;28;1948;-58
2022/12/09 01:34:46;;;;;;;;;;;;;;;;;;1047139;28;1604;-60
2022/12/09 01:35:16;;;;;;;;;;;;;;;;;;1047094;28;2299;-58
2022/12/09 01:35:47;;;;;;;;;;;;;;;;;;1046656;28;1857;-59
2022/12/09 01:36:21;;;;;;;;;;;;;;;;;;1047322;28;1670;-60
2022/12/09 01:36:51;;;;;;;;;;;;;;;;;;1045094;28;2543;-60
2022/12/09 01:37:22;;;;;;;;;;;;;;;;;;1046545;28;2666;-59
2022/12/09 01:37:52;;;;;;;;;;;;;;;;;;1044837;28;2621;-59
2022/12/09 01:38:22;;;;;;;;;;;;;;;;;;1048260;28;1763;-59
2022/12/09 01:38:52;;;;;;;;;;;;;;;;;;1045462;28;2674;-59
2022/12/09 01:39:23;;;;;;;;;;;;;;;;;;1046712;28;2563;-57
2022/12/09 01:39:53;;;;;;;;;;;;;;;;;;1045999;28;2397;-58
2022/12/09 01:40:23;;;;;;;;;;;;;;;;;;1045157;28;2374;-60
2022/12/09 01:40:53;;;;;;;;;;;;;;;;;;1045392;28;2317;-59
2022/12/09 01:41:24;;;;;;;;;;;;;;;;;;1047902;28;1688;-59
2022/12/09 01:41:54;;;;;;;;;;;;;;;;;;1045611;28;2561;-60
2022/12/09 01:42:25;;;;;;;;;;;;;;;;;;1044648;28;2940;-59
2022/12/09 01:42:55;;;;;;;;;;;;;;;;;;1046630;28;2119;-59
2022/12/09 01:43:25;;;;;;;;;;;;;;;;;;1045619;28;2113;-59
2022/12/09 01:44:08;;;;;;;;;;;;;;;;;;1046562;28;1739;-59
2022/12/09 01:44:38;;;;;;;;;;;;;;;;;;1044613;28;2547;-59
2022/12/09 01:45:20;;;;;;;;;;;;;;;;;;1045460;28;2309;-59
2022/12/09 01:45:51;;;;;;;;;;;;;;;;;;1046666;28;2419;-58
2022/12/09 01:46:21;;;;;;;;;;;;;;;;;;1045780;28;2878;-59
2022/12/09 01:46:55;;;;;;;;;;;;;;;;;;1046503;28;2393;-60
2022/12/09 01:47:25;;;;;;;;;;;;;;;;;;1049115;28;2082;-59
2022/12/09 01:47:59;;;;;;;;;;;;;;;;;;1047493;28;2583;-60
2022/12/09 01:48:35;;;;;;;;;;;;;;;;;;1045665;28;2956;-60
2022/12/09 01:49:07;;;;;;;;;;;;;;;;;;1046021;28;1718;-59
2022/12/09 01:49:40;;;;;;;;;;;;;;;;;;1046328;28;1910;-60
2022/12/09 01:50:10;;;;;;;;;;;;;;;;;;1045240;28;2313;-59
2022/12/09 01:50:46;;;;;;;;;;;;;;;;;;1045677;28;1975;-59
2022/12/09 01:51:18;;;;;;;;;;;;;;;;;;1044560;28;2779;-58
2022/12/09 01:51:53;;;;;;;;;;;;;;;;;;1045362;28;2155;-59
2022/12/09 01:52:23;;;;;;;;;;;;;;;;;;1046661;28;2029;-59
2022/12/09 01:52:54;;;;;;;;;;;;;;;;;;1047410;28;1285;-59
2022/12/09 01:53:43;;;;;;;;;;;;;;;;;;1046559;28;2158;-59
2022/12/09 01:54:14;;;;;;;;;;;;;;;;;;1047128;28;1770;-61
2022/12/09 01:54:45;;;;;;;;;;;;;;;;;;1047124;28;1435;-60
2022/12/09 01:55:16;;;;;;;;;;;;;;;;;;1047465;28;1660;-58
2022/12/09 01:55:46;;;;;;;;;;;;;;;;;;1046371;28;2050;-60
2022/12/09 01:56:25;;;;;;;;;;;;;;;;;;1047212;28;2060;-57
2022/12/09 01:56:55;;;;;;;;;;;;;;;;;;1047012;28;2736;-59
2022/12/09 01:57:26;;;;;;;;;;;;;;;;;;1046658;28;2959;-58
2022/12/09 01:57:56;;;;;;;;;;;;;;;;;;1045367;28;2535;-58
2022/12/09 01:58:27;;;;;;;;;;;;;;;;;;1047345;28;2456;-60
2022/12/09 01:58:59;;;;;;;;;;;;;;;;;;1046042;28;2437;-59
2022/12/09 01:59:42;;;;;;;;;;;;;;;;;;1049616;28;3053;-59
2022/12/09 02:00:19;;;;;;;;;;;;;;;;;;1042144;28;2201;-59
2022/12/09 02:00:50;;;;;;;;;;;;;;;;;;1042044;28;2127;-58
2022/12/09 02:01:20;;;;;;;;;;;;;;;;;;1042026;28;2749;-59
2022/12/09 02:01:53;;;;;;;;;;;;;;;;;;1041773;28;2467;-60
2022/12/09 02:02:26;;;;;;;;;;;;;;;;;;1043073;28;1990;-60
2022/12/09 02:02:58;;;;;;;;;;;;;;;;;;1042859;28;2176;-57
2022/12/09 02:03:28;;;;;;;;;;;;;;;;;;1047347;28;1334;-59
2022/12/09 02:03:59;;;;;;;;;;;;;;;;;;1043750;28;2372;-59
2022/12/09 02:04:31;;;;;;;;;;;;;;;;;;1042878;28;1979;-59
2022/12/09 02:05:07;;;;;;;;;;;;;;;;;;1041959;28;2483;-59
2022/12/09 02:05:38;;;;;;;;;;;;;;;;;;1041534;28;1701;-60
2022/12/09 02:06:08;;;;;;;;;;;;;;;;;;1041306;28;2571;-60
2022/12/09 02:06:38;;;;;;;;;;;;;;;;;;1043238;28;1662;-59
2022/12/09 02:07:09;;;;;;;;;;;;;;;;;;1047142;28;2242;-60
2022/12/09 02:07:39;;;;;;;;;;;;;;;;;;1041804;28;2139;-59
2022/12/09 02:08:11;;;;;;;;;;;;;;;;;;1043036;28;1678;-59
2022/12/09 02:08:41;;;;;;;;;;;;;;;;;;1042670;28;1656;-58
2022/12/09 02:09:12;;;;;;;;;;;;;;;;;;1045302;28;1677;-59
2022/12/09 02:09:42;;;;;;;;;;;;;;;;;;1042946;28;1975;-59
2022/12/09 02:10:13;;;;;;;;;;;;;;;;;;1042909;28;2039;-59
2022/12/09 02:11:02;;;;;;;;;;;;;;;;;;1041805;28;2357;-59
2022/12/09 02:11:53;;;;;;;;;;;;;;;;;;1042079;28;1975;-60
2022/12/09 02:12:28;;;;;;;;;;;;;;;;;;1043144;28;2145;-60
2022/12/09 02:13:12;;;;;;;;;;;;;;;;;;1043346;28;2432;-60
2022/12/09 02:13:42;;;;;;;;;;;;;;;;;;1041881;28;1702;-60
2022/12/09 02:14:25;;;;;;;;;;;;;;;;;;1040846;28;2163;-59
2022/12/09 02:15:07;;;;;;;;;;;;;;;;;;1042436;28;1931;-60
2022/12/09 02:15:42;;;;;;;;;;;;;;;;;;1042174;28;2374;-59
2022/12/09 02:16:15;;;;;;;;;;;;;;;;;;1043484;28;2556;-59
2022/12/09 02:17:08;;;;;;;;;;;;;;;;;;1040714;28;2668;-58
2022/12/09 02:17:39;;;;;;;;;;;;;;;;;;1042933;28;1630;-59
2022/12/09 02:18:14;;;;;;;;;;;;;;;;;;1042842;28;1683;-60
2022/12/09 02:18:49;;;;;;;;;;;;;;;;;;1041100;28;3722;-59
2022/12/09 02:19:39;;;;;;;;;;;;;;;;;;1039999;28;2958;-59
2022/12/09 02:20:18;;;;;;;;;;;;;;;;;;1036657;28;2399;-60
2022/12/09 02:20:54;;;;;;;;;;;;;;;;;;1040718;28;2670;-58
2022/12/09 02:21:40;;;;;;;;;;;;;;;;;;1041953;28;2655;-59
2022/12/09 02:22:13;;;;;;;;;;;;;;;;;;1041745;28;2346;-60
2022/12/09 02:22:46;;;;;;;;;;;;;;;;;;1041996;28;2342;-59
2022/12/09 02:23:20;;;;;;;;;;;;;;;;;;1042792;28;2057;-60
2022/12/09 02:24:09;;;;;;;;;;;;;;;;;;1043412;28;1222;-60
2022/12/09 02:24:49;;;;;;;;;;;;;;;;;;1042474;28;1694;-60
2022/12/09 02:25:36;;;;;;;;;;;;;;;;;;1042264;28;3003;-59
2022/12/09 02:26:25;;;;;;;;;;;;;;;;;;1040136;28;2382;-58
2022/12/09 02:26:55;;;;;;;;;;;;;;;;;;1042961;28;1702;-58
2022/12/09 02:27:33;;;;;;;;;;;;;;;;;;1041877;28;2251;-59
2022/12/09 02:28:14;;;;;;;;;;;;;;;;;;1040855;28;2354;-58
2022/12/09 02:28:47;;;;;;;;;;;;;;;;;;1040038;28;2305;-59
2022/12/09 02:29:23;;;;;;;;;;;;;;;;;;1042488;28;1994;-58
2022/12/09 02:30:14;;;;;;;;;;;;;;;;;;1039226;28;2773;-59
2022/12/09 02:30:57;;;;;;;;;;;;;;;;;;1045483;28;2718;-59
2022/12/09 02:31:46;;;;;;;;;;;;;;;;;;1041466;28;2314;-59
2022/12/09 02:32:16;;;;;;;;;;;;;;;;;;1041448;28;2364;-59
2022/12/09 02:33:05;;;;;;;;;;;;;;;;;;1043189;28;2456;-59
2022/12/09 02:33:42;;;;;;;;;;;;;;;;;;1042561;28;2231;-60
2022/12/09 02:34:20;;;;;;;;;;;;;;;;;;1040491;28;2355;-59
2022/12/09 02:35:13;;;;;;;;;;;;;;;;;;1041739;28;2078;-58
2022/12/09 02:35:47;;;;;;;;;;;;;;;;;;1035227;28;2711;-58
2022/12/09 02:36:18;;;;;;;;;;;;;;;;;;1040084;28;2320;-59
2022/12/09 02:36:52;;;;;;;;;;;;;;;;;;1042251;28;2447;-59
2022/12/09 02:37:39;;;;;;;;;;;;;;;;;;1040240;28;2978;-59
2022/12/09 02:38:10;;;;;;;;;;;;;;;;;;1041265;28;4106;-61
2022/12/09 02:38:42;;;;;;;;;;;;;;;;;;1040989;28;2572;-60
2022/12/09 02:39:13;;;;;;;;;;;;;;;;;;1044021;28;2564;-58
2022/12/09 02:39:56;;;;;;;;;;;;;;;;;;1042370;28;2370;-60
2022/12/09 02:40:34;;;;;;;;;;;;;;;;;;1047109;28;1937;-59
2022/12/09 02:41:08;;;;;;;;;;;;;;;;;;1044539;28;2168;-57
2022/12/09 02:41:40;;;;;;;;;;;;;;;;;;1041355;28;2608;-58
2022/12/09 02:42:12;;;;;;;;;;;;;;;;;;1046015;28;2403;-59
2022/12/09 02:42:45;;;;;;;;;;;;;;;;;;1046151;28;1876;-60
2022/12/09 02:43:16;;;;;;;;;;;;;;;;;;1042334;28;2190;-57
2022/12/09 02:43:49;;;;;;;;;;;;;;;;;;1039780;28;2932;-59
2022/12/09 02:44:21;;;;;;;;;;;;;;;;;;1042144;28;2227;-59
2022/12/09 02:44:52;;;;;;;;;;;;;;;;;;1039995;28;2696;-58
2022/12/09 02:45:23;;;;;;;;;;;;;;;;;;1042965;28;2266;-58
2022/12/09 02:45:55;;;;;;;;;;;;;;;;;;1042793;28;2776;-60
2022/12/09 02:46:26;;;;;;;;;;;;;;;;;;1039036;28;2964;-60
2022/12/09 02:46:57;;;;;;;;;;;;;;;;;;1042309;28;2033;-59
2022/12/09 02:47:30;;;;;;;;;;;;;;;;;;1041435;28;2392;-59
2022/12/09 02:48:01;;;;;;;;;;;;;;;;;;1041017;28;2377;-60
2022/12/09 02:48:34;;;;;;;;;;;;;;;;;;1041218;28;2387;-57
2022/12/09 02:49:04;;;;;;;;;;;;;;;;;;1042004;28;2445;-58
2022/12/09 02:49:35;;;;;;;;;;;;;;;;;;1043953;28;2234;-59
2022/12/09 02:50:08;;;;;;;;;;;;;;;;;;1039795;28;2337;-59
2022/12/09 02:50:39;;;;;;;;;;;;;;;;;;1042632;28;2492;-59
2022/12/09 02:51:13;;;;;;;;;;;;;;;;;;1041806;28;2183;-59
2022/12/09 02:51:44;;;;;;;;;;;;;;;;;;1042134;28;2045;-60
2022/12/09 02:52:15;;;;;;;;;;;;;;;;;;1042546;28;2078;-60
2022/12/09 02:52:46;;;;;;;;;;;;;;;;;;1042484;28;1974;-58
2022/12/09 02:53:16;;;;;;;;;;;;;;;;;;1042429;28;2375;-57
2022/12/09 02:53:51;;;;;;;;;;;;;;;;;;1042431;28;2314;-58
2022/12/09 02:54:23;;;;;;;;;;;;;;;;;;1042243;28;2639;-59
2022/12/09 02:54:54;;;;;;;;;;;;;;;;;;1042203;28;1993;-58
2022/12/09 02:55:24;;;;;;;;;;;;;;;;;;1043212;28;1765;-60
2022/12/09 02:55:54;;;;;;;;;;;;;;;;;;1041733;28;2678;-60
2022/12/09 02:56:25;;;;;;;;;;;;;;;;;;1041613;28;2136;-59
2022/12/09 02:56:59;;;;;;;;;;;;;;;;;;1040851;28;2334;-59
2022/12/09 02:57:30;;;;;;;;;;;;;;;;;;1041187;28;2521;-59
2022/12/09 02:58:01;;;;;;;;;;;;;;;;;;1040468;28;2481;-59
2022/12/09 02:58:32;;;;;;;;;;;;;;;;;;1040379;28;2409;-59
2022/12/09 02:59:02;;;;;;;;;;;;;;;;;;1039329;28;2981;-58
2022/12/09 02:59:46;;;;;;;;;;;;;;;;;;1041835;28;2313;-60
2022/12/09 03:00:23;;;;;;;;;;;;;;;;;;1048255;28;2210;-59
2022/12/09 03:00:54;;;;;;;;;;;;;;;;;;1051117;28;1742;-59
2022/12/09 03:01:43;;;;;;;;;;;;;;;;;;1053707;28;2351;-60
2022/12/09 03:02:20;;;;;;;;;;;;;;;;;;1049435;28;2393;-60
2022/12/09 03:02:53;;;;;;;;;;;;;;;;;;1048438;28;2319;-58
2022/12/09 03:03:24;;;;;;;;;;;;;;;;;;1050915;28;2320;-58
2022/12/09 03:03:54;;;;;;;;;;;;;;;;;;1049501;28;2395;-59
2022/12/09 03:04:25;;;;;;;;;;;;;;;;;;1050543;28;2190;-59
2022/12/09 03:05:05;;;;;;;;;;;;;;;;;;1049852;28;2308;-59
2022/12/09 03:05:40;;;;;;;;;;;;;;;;;;1051023;28;2174;-60
2022/12/09 03:06:14;;;;;;;;;;;;;;;;;;1052600;28;1578;-60
2022/12/09 03:06:48;;;;;;;;;;;;;;;;;;1050195;28;2365;-60
2022/12/09 03:07:31;;;;;;;;;;;;;;;;;;1047111;28;2419;-60
2022/12/09 03:08:19;;;;;;;;;;;;;;;;;;1045382;28;2403;-59
2022/12/09 03:08:50;;;;;;;;;;;;;;;;;;1049828;28;2133;-59
2022/12/09 03:09:27;;;;;;;;;;;;;;;;;;1049843;28;2132;-60
2022/12/09 03:10:00;;;;;;;;;;;;;;;;;;1048692;28;2485;-60
2022/12/09 03:10:37;;;;;;;;;;;;;;;;;;1052323;28;2220;-60
2022/12/09 03:11:11;;;;;;;;;;;;;;;;;;1050604;28;1686;-58
2022/12/09 03:11:42;;;;;;;;;;;;;;;;;;1053638;28;2279;-58
2022/12/09 03:12:14;;;;;;;;;;;;;;;;;;1047243;28;2161;-59
2022/12/09 03:12:48;;;;;;;;;;;;;;;;;;1051672;28;2516;-60
2022/12/09 03:13:39;;;;;;;;;;;;;;;;;;1043435;28;2151;-60
2022/12/09 03:14:11;;;;;;;;;;;;;;;;;;1033871;28;2504;-58
2022/12/09 03:14:44;;;;;;;;;;;;;;;;;;1050701;28;2002;-59
2022/12/09 03:15:16;;;;;;;;;;;;;;;;;;1048695;28;2078;-59
2022/12/09 03:15:49;;;;;;;;;;;;;;;;;;1049560;28;2235;-59
2022/12/09 03:16:29;;;;;;;;;;;;;;;;;;1049835;28;2107;-60
2022/12/09 03:17:18;;;;;;;;;;;;;;;;;;1049742;28;2177;-58
2022/12/09 03:17:50;;;;;;;;;;;;;;;;;;1050121;28;2830;-58
2022/12/09 03:18:22;;;;;;;;;;;;;;;;;;1045559;28;2405;-58
2022/12/09 03:18:59;;;;;;;;;;;;;;;;;;1040404;28;2431;-60
2022/12/09 03:19:34;;;;;;;;;;;;;;;;;;1042174;28;1677;-59
2022/12/09 03:20:21;;;;;;;;;;;;;;;;;;1044239;28;1720;-58
2022/12/09 03:20:51;;;;;;;;;;;;;;;;;;1051682;28;2475;-59
2022/12/09 03:21:24;;;;;;;;;;;;;;;;;;1053037;28;1779;-56
2022/12/09 03:21:58;;;;;;;;;;;;;;;;;;1049921;28;2132;-59
2022/12/09 03:22:30;;;;;;;;;;;;;;;;;;1051528;28;2527;-59
2022/12/09 03:23:02;;;;;;;;;;;;;;;;;;1049410;28;2420;-59
2022/12/09 03:23:33;;;;;;;;;;;;;;;;;;1050107;28;2501;-59
2022/12/09 03:24:06;;;;;;;;;;;;;;;;;;1051251;28;2063;-59
2022/12/09 03:24:48;;;;;;;;;;;;;;;;;;1049274;28;2536;-59
2022/12/09 03:25:39;;;;;;;;;;;;;;;;;;1048877;28;2281;-60
2022/12/09 03:26:10;;;;;;;;;;;;;;;;;;1053461;28;1902;-60
2022/12/09 03:26:41;;;;;;;;;;;;;;;;;;1050766;28;2468;-59
2022/12/09 03:27:14;;;;;;;;;;;;;;;;;;1052293;28;2102;-60
2022/12/09 03:27:47;;;;;;;;;;;;;;;;;;1051479;28;2542;-59
2022/12/09 03:28:26;;;;;;;;;;;;;;;;;;1051151;28;2503;-60
2022/12/09 03:28:58;;;;;;;;;;;;;;;;;;1051074;28;1953;-60
2022/12/09 03:29:31;;;;;;;;;;;;;;;;;;1051119;28;2521;-60
2022/12/09 03:30:02;;;;;;;;;;;;;;;;;;1052112;28;1835;-60
2022/12/09 03:30:34;;;;;;;;;;;;;;;;;;1051111;28;2667;-59
2022/12/09 03:31:07;;;;;;;;;;;;;;;;;;1051568;28;2234;-58
2022/12/09 03:31:38;;;;;;;;;;;;;;;;;;1049983;28;2404;-60
2022/12/09 03:32:10;;;;;;;;;;;;;;;;;;1051256;28;2477;-58
2022/12/09 03:32:41;;;;;;;;;;;;;;;;;;1050280;28;2274;-59
2022/12/09 03:33:14;;;;;;;;;;;;;;;;;;1051885;28;2060;-58
2022/12/09 03:33:47;;;;;;;;;;;;;;;;;;1051593;28;1586;-59
2022/12/09 03:34:21;;;;;;;;;;;;;;;;;;1055509;28;1676;-59
2022/12/09 03:34:54;;;;;;;;;;;;;;;;;;1055734;28;1759;-59
2022/12/09 03:35:28;;;;;;;;;;;;;;;;;;1053398;28;2413;-57
2022/12/09 03:36:00;;;;;;;;;;;;;;;;;;1050451;28;1711;-60
2022/12/09 03:36:32;;;;;;;;;;;;;;;;;;1051451;28;2115;-59
2022/12/09 03:37:03;;;;;;;;;;;;;;;;;;1049909;28;2179;-58
2022/12/09 03:37:47;;;;;;;;;;;;;;;;;;1052001;28;1628;-60
2022/12/09 03:38:19;;;;;;;;;;;;;;;;;;1050322;28;2079;-58
2022/12/09 03:38:50;;;;;;;;;;;;;;;;;;1050696;28;2379;-59
2022/12/09 03:39:24;;;;;;;;;;;;;;;;;;1054263;28;2594;-60
2022/12/09 03:39:56;;;;;;;;;;;;;;;;;;1053270;28;2319;-59
2022/12/09 03:40:28;;;;;;;;;;;;;;;;;;1049883;28;2752;-58
2022/12/09 03:41:20;;;;;;;;;;;;;;;;;;1050269;28;2988;-59
2022/12/09 03:41:52;;;;;;;;;;;;;;;;;;1050845;28;1549;-59
2022/12/09 03:42:25;;;;;;;;;;;;;;;;;;1049597;28;2417;-60
2022/12/09 03:43:04;;;;;;;;;;;;;;;;;;1049833;28;1635;-59
2022/12/09 03:43:37;;;;;;;;;;;;;;;;;;1050167;28;1823;-59
2022/12/09 03:44:10;;;;;;;;;;;;;;;;;;1049058;28;2268;-60
2022/12/09 03:44:43;;;;;;;;;;;;;;;;;;1049340;28;2975;-60
2022/12/09 03:45:14;;;;;;;;;;;;;;;;;;1050681;28;2462;-59
2022/12/09 03:45:45;;;;;;;;;;;;;;;;;;1051707;28;1735;-59
2022/12/09 03:46:15;;;;;;;;;;;;;;;;;;1049837;28;1910;-59
2022/12/09 03:46:46;;;;;;;;;;;;;;;;;;1048111;28;2406;-58
2022/12/09 03:47:16;;;;;;;;;;;;;;;;;;1050612;28;2336;-59
2022/12/09 03:47:46;;;;;;;;;;;;;;;;;;1050344;28;2438;-59
2022/12/09 03:48:16;;;;;;;;;;;;;;;;;;1049438;28;2220;-58
2022/12/09 03:48:47;;;;;;;;;;;;;;;;;;1050173;28;3427;-59